createdAt,value
2022-08-17T00:00:42.715Z,6.70
2022-08-17T00:03:32.672Z,5.90
2022-08-17T00:06:13.166Z,5.80
2022-08-17T00:08:55.868Z,5.60
2022-08-17T00:11:32.333Z,5.50
2022-08-17T00:14:11.080Z,5.10
2022-08-17T00:16:56.304Z,5.10
2022-08-17T00:19:28.328Z,5.20
2022-08-17T00:22:32.814Z,5.50
2022-08-17T00:24:51.315Z,4.90
2022-08-17T00:27:21.755Z,5.20
2022-08-17T00:29:52.672Z,5.20
2022-08-17T00:33:11.823Z,5.90
2022-08-17T00:35:13.668Z,5.80
2022-08-17T00:37:42.497Z,6.70
2022-08-17T00:40:13.688Z,6.60
2022-08-17T00:42:45.134Z,6.10
2022-08-17T00:45:16.806Z,5.60
2022-08-17T00:47:45.903Z,5.30
2022-08-17T00:50:17.560Z,5.30
2022-08-17T00:52:53.651Z,4.70
2022-08-17T00:55:26.470Z,5.30
2022-08-17T00:58:00.876Z,4.80
2022-08-17T01:00:36.550Z,4.50
2022-08-17T01:03:15.297Z,5.00
2022-08-17T01:05:43.856Z,5.00
2022-08-17T01:08:17.143Z,4.60
2022-08-17T01:10:59.456Z,5.60
2022-08-17T01:13:39.777Z,5.00
2022-08-17T01:16:33.102Z,4.90
2022-08-17T01:19:26.987Z,4.70
2022-08-17T01:22:04.338Z,5.20
2022-08-17T01:24:34.282Z,4.70
2022-08-17T01:27:10.429Z,5.40
2022-08-17T01:29:44.048Z,5.90
2022-08-17T01:32:14.533Z,5.60
2022-08-17T01:34:45.519Z,5.40
2022-08-17T01:37:21.672Z,5.90
2022-08-17T01:39:56.209Z,5.90
2022-08-17T01:45:11.758Z,5.60
2022-08-17T01:47:42.026Z,5.60
2022-08-17T01:50:16.264Z,5.60
2022-08-17T01:52:47.051Z,6.20
2022-08-17T01:55:24.573Z,6.10
2022-08-17T01:57:57.147Z,6.30
2022-08-17T02:00:27.939Z,6.40
2022-08-17T02:03:17.395Z,5.90
2022-08-17T02:05:50.265Z,6.70
2022-08-17T02:08:39.130Z,6.60
2022-08-17T02:11:19.361Z,6.90
2022-08-17T02:13:55.053Z,6.80
2022-08-17T02:16:39.453Z,6.90
2022-08-17T02:19:11.509Z,6.50
2022-08-17T02:21:42.358Z,6.50
2022-08-17T02:24:58.834Z,6.40
2022-08-17T02:27:07.997Z,6.60
2022-08-17T02:29:37.397Z,6.30
2022-08-17T02:32:06.152Z,6.40
2022-08-17T02:34:35.001Z,6.80
2022-08-17T02:37:03.645Z,7.20
2022-08-17T02:39:32.217Z,11.00
2022-08-17T02:42:04.998Z,8.10
2022-08-17T02:44:39.625Z,7.20
2022-08-17T02:47:12.719Z,7.70
2022-08-17T02:49:46.301Z,7.30
2022-08-17T02:52:43.508Z,6.90
2022-08-17T02:55:17.290Z,6.80
2022-08-17T02:57:46.487Z,8.20
2022-08-17T03:00:21.416Z,7.80
2022-08-17T03:02:50.950Z,6.50
2022-08-17T03:05:22.138Z,6.90
2022-08-17T03:07:51.360Z,7.10
2022-08-17T03:10:21.857Z,6.70
2022-08-17T03:12:53.078Z,7.40
2022-08-17T03:15:31.699Z,7.30
2022-08-17T03:18:03.778Z,7.50
2022-08-17T03:20:34.548Z,6.70
2022-08-17T03:23:04.030Z,5.90
2022-08-17T03:25:43.478Z,6.10
2022-08-17T03:28:12.878Z,6.10
2022-08-17T03:30:42.098Z,5.90
2022-08-17T03:33:11.204Z,5.40
2022-08-17T03:35:41.703Z,5.60
2022-08-17T03:38:12.025Z,5.80
2022-08-17T03:40:57.565Z,6.30
2022-08-17T03:43:31.882Z,6.10
2022-08-17T03:46:28.100Z,7.30
2022-08-17T03:49:26.183Z,6.90
2022-08-17T03:52:16.574Z,6.70
2022-08-17T03:55:05.814Z,7.00
2022-08-17T03:57:34.304Z,7.00
2022-08-17T04:00:04.806Z,7.10
2022-08-17T04:02:42.658Z,6.50
2022-08-17T04:05:12.220Z,7.20
2022-08-17T04:07:43.865Z,6.80
2022-08-17T04:10:13.558Z,6.60
2022-08-17T04:12:58.460Z,6.50
2022-08-17T04:15:27.346Z,6.30
2022-08-17T04:17:55.843Z,6.20
2022-08-17T04:20:26.517Z,6.90
2022-08-17T04:23:28.568Z,7.10
2022-08-17T04:25:57.720Z,6.60
2022-08-17T04:28:26.726Z,6.40
2022-08-17T04:30:56.754Z,6.70
2022-08-17T04:33:27.707Z,6.40
2022-08-17T04:36:03.205Z,6.30
2022-08-17T04:38:35.188Z,6.00
2022-08-17T04:41:23.930Z,6.30
2022-08-17T04:43:59.024Z,14.70
2022-08-17T04:46:33.785Z,24.00
2022-08-17T04:49:06.717Z,6.60
2022-08-17T04:51:39.030Z,6.00
2022-08-17T04:54:20.542Z,16.60
2022-08-17T04:56:49.486Z,8.80
2022-08-17T04:59:21.511Z,7.90
2022-08-17T05:01:52.132Z,16.10
2022-08-17T05:04:34.023Z,13.60
2022-08-17T05:07:05.262Z,10.20
2022-08-17T05:09:34.872Z,10.30
2022-08-17T05:12:04.973Z,13.30
2022-08-17T05:14:35.632Z,9.70
2022-08-17T05:17:11.021Z,8.00
2022-08-17T05:19:41.437Z,7.90
2022-08-17T05:22:10.855Z,9.10
2022-08-17T05:24:43.582Z,9.20
2022-08-17T05:27:23.474Z,7.50
2022-08-17T05:29:52.612Z,8.30
2022-08-17T05:32:39.284Z,7.00
2022-08-17T05:35:09.520Z,6.20
2022-08-17T05:37:39.567Z,13.20
2022-08-17T05:40:10.440Z,12.90
2022-08-17T05:42:39.415Z,10.60
2022-08-17T05:45:09.905Z,4.90
2022-08-17T05:47:42.859Z,5.60
2022-08-17T05:50:26.037Z,6.00
2022-08-17T05:53:16.181Z,6.00
2022-08-17T05:56:22.716Z,6.20
2022-08-17T05:59:11.814Z,5.00
2022-08-17T06:02:12.574Z,5.00
2022-08-17T06:04:44.612Z,4.40
2022-08-17T06:07:33.087Z,4.60
2022-08-17T06:10:14.881Z,5.10
2022-08-17T06:12:49.010Z,4.50
2022-08-17T06:18:08.949Z,4.20
2022-08-17T06:20:50.644Z,4.10
2022-08-17T06:24:10.880Z,4.40
2022-08-17T06:26:43.472Z,3.90
2022-08-17T06:29:27.359Z,4.30
2022-08-17T06:31:59.418Z,3.80
2022-08-17T06:34:28.461Z,3.90
2022-08-17T06:37:21.289Z,4.00
2022-08-17T06:40:11.184Z,3.80
2022-08-17T06:43:05.769Z,4.10
2022-08-17T06:45:41.486Z,3.80
2022-08-17T06:48:31.494Z,4.50
2022-08-17T06:51:27.796Z,4.40
2022-08-17T06:54:07.163Z,4.50
2022-08-17T06:56:52.988Z,4.00
2022-08-17T06:59:47.163Z,4.10
2022-08-17T07:02:29.143Z,4.00
2022-08-17T07:05:17.786Z,4.20
2022-08-17T07:08:17.002Z,3.90
2022-08-17T07:10:56.816Z,4.10
2022-08-17T07:13:40.434Z,4.20
2022-08-17T07:16:36.738Z,3.70
2022-08-17T07:19:07.991Z,3.50
2022-08-17T07:22:04.837Z,3.70
2022-08-17T07:24:47.523Z,3.90
2022-08-17T07:27:21.036Z,3.70
2022-08-17T07:29:59.338Z,3.90
2022-08-17T07:32:41.721Z,4.80
2022-08-17T07:35:15.664Z,4.40
2022-08-17T07:38:25.457Z,4.30
2022-08-17T07:41:02.417Z,4.20
2022-08-17T07:43:40.581Z,4.10
2022-08-17T07:46:34.479Z,4.10
2022-08-17T07:49:08.802Z,3.90
2022-08-17T07:51:43.487Z,4.20
2022-08-17T07:54:26.242Z,3.90
2022-08-17T07:57:03.769Z,4.00
2022-08-17T07:59:36.805Z,3.90
2022-08-17T08:02:31.890Z,3.90
2022-08-17T08:05:29.972Z,3.80
2022-08-17T08:08:33.484Z,3.90
2022-08-17T08:11:12.496Z,4.10
2022-08-17T08:13:44.007Z,4.50
2022-08-17T08:16:29.865Z,4.70
2022-08-17T08:19:01.700Z,4.20
2022-08-17T08:21:57.736Z,4.40
2022-08-17T08:24:52.020Z,4.30
2022-08-17T08:30:17.373Z,4.50
2022-08-17T08:33:17.444Z,4.50
2022-08-17T08:36:58.138Z,4.40
2022-08-17T08:39:52.063Z,4.50
2022-08-17T08:42:29.247Z,4.70
2022-08-17T08:45:22.727Z,4.40
2022-08-17T08:48:22.924Z,4.80
2022-08-17T08:51:06.312Z,5.20
2022-08-17T08:54:01.767Z,4.80
2022-08-17T08:57:22.300Z,5.00
2022-08-17T08:59:59.897Z,4.50
2022-08-17T09:02:55.864Z,5.00
2022-08-17T09:05:56.692Z,4.50
2022-08-17T09:08:41.358Z,4.70
2022-08-17T09:11:22.651Z,4.50
2022-08-17T09:14:21.508Z,4.30
2022-08-17T09:17:15.239Z,4.60
2022-08-17T09:19:51.686Z,4.60
2022-08-17T09:22:37.508Z,5.00
2022-08-17T09:25:28.620Z,4.60
2022-08-17T09:28:05.871Z,4.60
2022-08-17T09:30:47.692Z,4.30
2022-08-17T09:33:23.822Z,4.20
2022-08-17T09:35:59.379Z,4.20
2022-08-17T09:39:03.624Z,4.00
2022-08-17T09:41:37.716Z,4.30
2022-08-17T09:44:32.454Z,3.60
2022-08-17T09:47:47.615Z,4.00
2022-08-17T09:50:55.424Z,4.00
2022-08-17T09:53:27.118Z,3.70
2022-08-17T09:56:14.754Z,3.70
2022-08-17T09:58:56.775Z,3.90
2022-08-17T10:01:36.980Z,3.70
2022-08-17T10:04:29.337Z,3.90
2022-08-17T10:07:15.064Z,4.10
2022-08-17T10:09:51.222Z,3.90
2022-08-17T10:12:29.767Z,3.70
2022-08-17T10:15:09.533Z,3.70
2022-08-17T10:18:08.695Z,3.80
2022-08-17T10:21:15.568Z,3.50
2022-08-17T10:24:24.819Z,4.00
2022-08-17T10:26:58.494Z,3.50
2022-08-17T10:29:49.005Z,3.50
2022-08-17T10:32:35.893Z,3.80
2022-08-17T10:35:26.192Z,3.80
2022-08-17T10:38:14.969Z,4.00
2022-08-17T10:40:55.001Z,3.70
2022-08-17T10:44:37.603Z,3.30
2022-08-17T10:47:11.888Z,3.60
2022-08-17T10:49:48.187Z,3.40
2022-08-17T10:52:20.171Z,3.60
2022-08-17T10:54:51.852Z,3.50
2022-08-17T10:57:29.967Z,4.00
2022-08-17T11:00:18.472Z,3.80
2022-08-17T11:02:53.747Z,3.90
2022-08-17T11:05:54.249Z,4.00
2022-08-17T11:08:53.940Z,3.90
2022-08-17T11:11:36.787Z,4.10
2022-08-17T11:14:24.259Z,4.10
2022-08-17T11:17:12.432Z,3.60
2022-08-17T11:20:17.056Z,3.90
2022-08-17T11:22:49.113Z,3.80
2022-08-17T11:25:32.288Z,4.10
2022-08-17T11:28:24.116Z,4.20
2022-08-17T11:30:57.647Z,4.50
2022-08-17T11:33:29.543Z,4.20
2022-08-17T11:36:39.141Z,4.30
2022-08-17T11:39:13.851Z,4.50
2022-08-17T11:41:58.612Z,4.30
2022-08-17T11:45:08.341Z,4.40
2022-08-17T11:48:29.188Z,4.40
2022-08-17T11:51:36.353Z,4.10
2022-08-17T11:54:34.546Z,4.70
2022-08-17T11:57:27.424Z,4.20
2022-08-17T12:00:12.029Z,4.30
2022-08-17T12:05:17.206Z,4.60
2022-08-17T12:08:07.416Z,4.70
2022-08-17T12:10:49.685Z,5.40
2022-08-17T12:13:19.658Z,4.90
2022-08-17T12:15:53.003Z,5.20
2022-08-17T12:18:36.061Z,4.50
2022-08-17T12:21:22.443Z,5.00
2022-08-17T12:23:56.106Z,4.80
2022-08-17T12:26:32.143Z,5.00
2022-08-17T12:29:06.800Z,5.00
2022-08-17T12:31:46.194Z,5.00
2022-08-17T12:34:26.743Z,5.20
2022-08-17T12:37:05.216Z,5.40
2022-08-17T12:39:34.178Z,5.90
2022-08-17T12:42:06.061Z,5.20
2022-08-17T12:44:46.168Z,5.40
2022-08-17T12:47:22.726Z,5.00
2022-08-17T12:49:55.541Z,5.10
2022-08-17T12:52:33.336Z,5.30
2022-08-17T12:55:18.311Z,5.30
2022-08-17T12:57:59.942Z,5.70
2022-08-17T13:00:38.361Z,5.60
2022-08-17T13:03:12.738Z,5.70
2022-08-17T13:05:59.721Z,5.30
2022-08-17T13:11:09.714Z,5.60
2022-08-17T13:13:45.003Z,5.90
2022-08-17T13:16:14.501Z,5.90
2022-08-17T13:18:52.042Z,6.10
2022-08-17T13:21:24.542Z,6.00
2022-08-17T13:24:17.856Z,5.70
2022-08-17T13:26:52.505Z,6.20
2022-08-17T13:29:33.735Z,6.10
2022-08-17T13:32:13.000Z,5.50
2022-08-17T13:35:13.475Z,5.70
2022-08-17T13:37:36.151Z,6.00
2022-08-17T13:40:11.035Z,6.50
2022-08-17T13:42:51.904Z,6.10
2022-08-17T13:45:36.114Z,5.90
2022-08-17T13:48:12.382Z,6.90
2022-08-17T13:50:58.169Z,5.80
2022-08-17T13:53:32.868Z,6.30
2022-08-17T13:56:37.385Z,6.30
2022-08-17T13:59:53.443Z,6.30
2022-08-17T14:02:21.214Z,5.90
2022-08-17T14:04:51.623Z,6.10
2022-08-17T14:07:33.967Z,5.90
2022-08-17T14:10:06.404Z,5.90
2022-08-17T14:12:38.384Z,6.60
2022-08-17T14:15:08.497Z,6.50
2022-08-17T14:17:39.134Z,6.50
2022-08-17T14:20:12.098Z,6.40
2022-08-17T14:22:45.422Z,6.50
2022-08-17T14:25:21.130Z,6.80
2022-08-17T14:27:54.350Z,6.50
2022-08-17T14:30:26.702Z,6.60
2022-08-17T14:35:29.608Z,6.40
2022-08-17T14:37:59.786Z,6.20
2022-08-17T14:40:31.833Z,6.50
2022-08-17T14:43:01.609Z,6.20
2022-08-17T14:45:34.680Z,6.50
2022-08-17T14:48:08.175Z,6.60
2022-08-17T14:50:42.204Z,6.60
2022-08-17T14:55:46.943Z,6.50
2022-08-17T14:58:19.696Z,6.10
2022-08-17T15:00:51.085Z,6.40
2022-08-17T15:03:22.999Z,6.70
2022-08-17T15:05:52.581Z,7.20
2022-08-17T15:08:22.414Z,6.60
2022-08-17T15:10:54.363Z,6.70
2022-08-17T15:13:26.514Z,7.30
2022-08-17T15:15:55.442Z,7.40
2022-08-17T15:18:25.364Z,6.80
2022-08-17T15:20:53.993Z,6.80
2022-08-17T15:23:26.465Z,7.00
2022-08-17T15:25:55.404Z,6.80
2022-08-17T15:28:26.195Z,6.90
2022-08-17T15:30:56.912Z,7.10
2022-08-17T15:33:32.955Z,6.70
2022-08-17T15:36:06.708Z,7.00
2022-08-17T15:38:39.442Z,6.80
2022-08-17T15:41:13.863Z,6.70
2022-08-17T15:43:44.969Z,7.00
2022-08-17T15:46:23.238Z,7.00
2022-08-17T15:48:57.549Z,6.60
2022-08-17T15:51:30.955Z,6.50
2022-08-17T15:54:31.711Z,6.30
2022-08-17T15:57:04.650Z,6.10
2022-08-17T15:59:35.009Z,5.50
2022-08-17T16:03:13.968Z,5.70
2022-08-17T16:05:12.759Z,5.70
2022-08-17T16:07:43.620Z,6.10
2022-08-17T16:10:16.744Z,5.50
2022-08-17T16:12:50.609Z,5.90
2022-08-17T16:15:19.478Z,5.50
2022-08-17T16:17:48.022Z,6.00
2022-08-17T16:20:20.281Z,6.10
2022-08-17T16:22:55.478Z,6.10
2022-08-17T16:25:52.707Z,6.10
2022-08-17T16:28:19.329Z,6.80
2022-08-17T16:30:49.709Z,6.70
2022-08-17T16:33:19.014Z,6.30
2022-08-17T16:35:47.608Z,6.30
2022-08-17T16:38:17.910Z,6.30
2022-08-17T16:40:47.483Z,6.40
2022-08-17T16:43:17.466Z,7.10
2022-08-17T16:45:51.870Z,6.60
2022-08-17T16:48:20.831Z,6.60
2022-08-17T16:51:03.476Z,6.70
2022-08-17T16:53:37.521Z,7.40
2022-08-17T16:56:09.467Z,7.10
2022-08-17T16:58:39.602Z,7.40
2022-08-17T17:01:09.114Z,8.10
2022-08-17T17:03:40.966Z,6.90
2022-08-17T17:06:37.774Z,32.00
2022-08-17T17:09:30.396Z,7.20
2022-08-17T17:12:03.083Z,7.00
2022-08-17T17:14:46.778Z,7.20
2022-08-17T17:17:28.680Z,8.10
2022-08-17T17:20:17.486Z,27.90
2022-08-17T17:22:49.805Z,8.00
2022-08-17T17:25:30.085Z,9.90
2022-08-17T17:28:15.400Z,8.70
2022-08-17T17:30:50.475Z,9.20
2022-08-17T17:33:29.493Z,14.70
2022-08-17T17:36:27.431Z,15.40
2022-08-17T17:39:05.664Z,25.30
2022-08-17T17:41:44.925Z,10.40
2022-08-17T17:44:17.953Z,9.40
2022-08-17T17:46:56.287Z,14.60
2022-08-17T17:49:30.400Z,7.70
2022-08-17T17:52:24.451Z,34.70
2022-08-17T17:55:20.670Z,25.20
2022-08-17T17:58:02.841Z,14.30
2022-08-17T18:00:55.230Z,12.50
2022-08-17T18:03:51.462Z,9.80
2022-08-17T18:06:27.378Z,8.80
2022-08-17T18:09:33.795Z,17.30
2022-08-17T18:12:19.935Z,38.50
2022-08-17T18:15:09.969Z,16.10
2022-08-17T18:17:38.523Z,10.80
2022-08-17T18:20:08.270Z,10.50
2022-08-17T18:22:40.735Z,11.20
2022-08-17T18:25:44.114Z,11.90
2022-08-17T18:28:27.558Z,12.70
2022-08-17T18:31:13.676Z,9.10
2022-08-17T18:33:46.254Z,11.80
2022-08-17T18:36:32.222Z,8.50
2022-08-17T18:39:23.629Z,8.50
2022-08-17T18:41:54.958Z,7.60
2022-08-17T18:44:29.579Z,8.40
2022-08-17T18:47:12.796Z,8.90
2022-08-17T18:49:43.966Z,9.20
2022-08-17T18:52:17.476Z,9.30
2022-08-17T18:55:15.326Z,8.90
2022-08-17T18:57:48.346Z,9.90
2022-08-17T19:00:21.356Z,8.20
2022-08-17T19:03:01.243Z,9.00
2022-08-17T19:05:37.965Z,8.70
2022-08-17T19:08:26.344Z,8.60
2022-08-17T19:11:03.163Z,8.80
2022-08-17T19:13:37.627Z,9.50
2022-08-17T19:16:27.991Z,9.70
2022-08-17T19:19:19.849Z,9.10
2022-08-17T19:21:55.127Z,9.50
2022-08-17T19:24:27.449Z,9.10
2022-08-17T19:27:19.614Z,9.10
2022-08-17T19:30:08.372Z,9.00
2022-08-17T19:32:38.267Z,9.10
2022-08-17T19:35:13.705Z,8.60
2022-08-17T19:38:04.401Z,9.80
2022-08-17T19:40:54.050Z,9.40
2022-08-17T19:44:07.743Z,8.40
2022-08-17T19:47:30.467Z,9.00
2022-08-17T19:50:18.988Z,8.70
2022-08-17T19:53:02.259Z,10.00
2022-08-17T19:55:49.549Z,10.00
2022-08-17T19:58:45.842Z,10.70
2022-08-17T20:01:38.365Z,8.70
2022-08-17T20:04:32.292Z,9.50
2022-08-17T20:07:10.787Z,9.30
2022-08-17T20:09:47.502Z,10.00
2022-08-17T20:12:29.854Z,11.80
2022-08-17T20:15:18.549Z,15.90
2022-08-17T20:17:48.826Z,16.90
2022-08-17T20:20:43.972Z,18.20
2022-08-17T20:24:00.252Z,16.90
2022-08-17T20:26:58.704Z,11.70
2022-08-17T20:30:13.017Z,9.60
2022-08-17T20:33:02.513Z,10.80
2022-08-17T20:35:37.264Z,10.10
2022-08-17T20:38:35.941Z,11.40
2022-08-17T20:41:04.643Z,10.20
2022-08-17T20:43:35.853Z,9.90
2022-08-17T20:46:16.606Z,12.90
2022-08-17T20:48:51.473Z,14.10
2022-08-17T20:54:04.543Z,11.60
2022-08-17T20:56:45.153Z,10.80
2022-08-17T20:59:26.046Z,11.00
2022-08-17T21:02:18.573Z,11.30
2022-08-17T21:04:54.701Z,11.10
2022-08-17T21:07:42.945Z,10.60
2022-08-17T21:10:24.257Z,10.90
2022-08-17T21:13:00.310Z,10.20
2022-08-17T21:15:44.017Z,10.60
2022-08-17T21:18:34.804Z,12.00
2022-08-17T21:21:26.632Z,11.50
2022-08-17T21:24:26.197Z,10.20
2022-08-17T21:27:21.629Z,9.90
2022-08-17T21:30:15.147Z,10.50
2022-08-17T21:33:05.034Z,9.80
2022-08-17T21:35:58.660Z,9.80
2022-08-17T21:38:56.979Z,9.10
2022-08-17T21:41:34.239Z,8.70
2022-08-17T21:44:18.388Z,9.80
2022-08-17T21:46:50.363Z,10.50
2022-08-17T21:49:25.651Z,10.60
2022-08-17T21:51:56.962Z,10.30
2022-08-17T21:54:39.173Z,10.70
2022-08-17T21:57:18.331Z,9.60
2022-08-17T21:59:54.172Z,10.30
2022-08-17T22:02:28.610Z,10.20
2022-08-17T22:05:13.182Z,9.80
2022-08-17T22:07:51.002Z,10.60
2022-08-17T22:10:38.244Z,11.20
2022-08-17T22:13:06.538Z,10.30
2022-08-17T22:16:27.802Z,10.00
2022-08-17T22:18:59.168Z,10.20
2022-08-17T22:21:27.748Z,9.70
2022-08-17T22:24:06.128Z,11.50
2022-08-17T22:27:14.154Z,12.50
2022-08-17T22:29:57.467Z,12.50
2022-08-17T22:32:37.740Z,10.40
2022-08-17T22:35:41.327Z,11.40
2022-08-17T22:38:19.064Z,10.40
2022-08-17T22:40:55.190Z,11.20
2022-08-17T22:43:28.828Z,10.80
2022-08-17T22:46:00.526Z,11.20
2022-08-17T22:48:30.613Z,10.20
2022-08-17T22:51:12.429Z,10.00
2022-08-17T22:54:30.434Z,9.90
2022-08-17T22:57:21.502Z,10.80
2022-08-17T22:59:56.620Z,11.50
2022-08-17T23:02:26.652Z,12.40
2022-08-17T23:05:16.881Z,11.90
2022-08-17T23:07:47.589Z,10.40
2022-08-17T23:10:16.502Z,12.10
2022-08-17T23:12:49.188Z,11.10
2022-08-17T23:15:20.872Z,10.90
2022-08-17T23:17:50.566Z,10.90
2022-08-17T23:20:20.553Z,9.90
2022-08-17T23:22:51.911Z,10.20
2022-08-17T23:25:29.313Z,10.80
2022-08-17T23:27:59.444Z,11.00
2022-08-17T23:30:31.387Z,10.40
2022-08-17T23:33:02.787Z,10.40
2022-08-17T23:35:40.444Z,10.70
2022-08-17T23:38:13.233Z,10.30
2022-08-17T23:40:43.980Z,10.50
2022-08-17T23:43:23.777Z,10.50
2022-08-17T23:45:56.220Z,11.40
2022-08-17T23:48:35.325Z,10.90
2022-08-17T23:51:13.707Z,10.80
2022-08-17T23:53:48.554Z,10.40
2022-08-17T23:56:23.674Z,9.70
2022-08-17T23:58:55.535Z,10.50
